createdAt,value
2019-06-01T00:00:14.899Z,20.60
2019-06-01T00:01:19.866Z,20.65
2019-06-01T00:02:25.151Z,20.43
2019-06-01T00:03:30.158Z,20.39
2019-06-01T00:04:36.024Z,20.47
2019-06-01T00:05:40.984Z,20.25
2019-06-01T00:06:47.027Z,20.19
2019-06-01T00:07:52.182Z,20.03
2019-06-01T00:08:58.028Z,20.16
2019-06-01T00:10:03.001Z,20.45
2019-06-01T00:11:08.547Z,20.49
2019-06-01T00:12:13.235Z,20.38
2019-06-01T00:13:18.791Z,20.47
2019-06-01T00:14:24.096Z,20.37
2019-06-01T00:15:30.044Z,20.27
2019-06-01T00:16:34.762Z,20.40
2019-06-01T00:17:41.760Z,20.39
2019-06-01T00:18:48.231Z,20.43
2019-06-01T00:19:54.286Z,20.55
2019-06-01T00:20:59.524Z,20.49
2019-06-01T00:22:05.070Z,20.69
2019-06-01T00:23:10.115Z,20.25
2019-06-01T00:24:15.967Z,20.27
2019-06-01T00:25:20.948Z,20.13
2019-06-01T00:26:27.188Z,20.33
2019-06-01T00:27:32.246Z,20.27
2019-06-01T00:28:37.793Z,20.08
2019-06-01T00:29:42.718Z,20.28
2019-06-01T00:30:48.592Z,20.28
2019-06-01T00:31:53.350Z,20.21
2019-06-01T00:32:58.931Z,20.37
2019-06-01T00:34:04.182Z,20.26
2019-06-01T00:35:09.741Z,20.19
2019-06-01T00:36:14.440Z,20.04
2019-06-01T00:37:20.011Z,20.03
2019-06-01T00:38:25.259Z,19.69
2019-06-01T00:39:30.278Z,19.99
2019-06-01T00:40:35.539Z,19.49
2019-06-01T00:41:41.917Z,19.69
2019-06-01T00:42:48.214Z,19.44
2019-06-01T00:43:54.214Z,19.55
2019-06-01T00:44:59.599Z,19.32
2019-06-01T00:46:04.897Z,19.36
2019-06-01T00:47:10.205Z,19.53
2019-06-01T00:48:15.590Z,19.67
2019-06-01T00:49:20.833Z,19.87
2019-06-01T00:50:25.891Z,19.70
2019-06-01T00:51:31.163Z,19.93
2019-06-01T00:52:36.672Z,19.65
2019-06-01T00:53:43.293Z,19.71
2019-06-01T00:54:49.487Z,19.75
2019-06-01T00:55:54.292Z,19.87
2019-06-01T00:57:00.290Z,19.63
2019-06-01T00:58:05.001Z,19.57
2019-06-01T00:59:10.329Z,19.74
2019-06-01T01:00:15.304Z,19.74
2019-06-01T01:01:20.883Z,19.59
2019-06-01T01:02:25.575Z,19.61
2019-06-01T01:03:31.170Z,19.43
2019-06-01T01:04:36.435Z,19.83
2019-06-01T01:05:41.757Z,19.89
2019-06-01T01:06:46.763Z,19.75
2019-06-01T01:07:53.550Z,19.73
2019-06-01T01:08:58.638Z,19.48
2019-06-01T01:10:03.933Z,19.89
2019-06-01T01:11:08.636Z,19.48
2019-06-01T01:12:13.683Z,19.34
2019-06-01T01:13:20.912Z,19.54
2019-06-01T01:14:26.200Z,19.57
2019-06-01T01:15:31.157Z,19.63
2019-06-01T01:16:36.700Z,19.44
2019-06-01T01:17:41.209Z,19.60
2019-06-01T01:18:47.765Z,19.74
2019-06-01T01:19:53.918Z,19.42
2019-06-01T01:20:59.792Z,19.05
2019-06-01T01:22:05.773Z,19.25
2019-06-01T01:23:10.845Z,19.18
2019-06-01T01:24:16.087Z,19.12
2019-06-01T01:25:21.932Z,19.14
2019-06-01T01:26:26.909Z,19.34
2019-06-01T01:27:32.479Z,19.46
2019-06-01T01:28:37.736Z,19.45
2019-06-01T01:29:43.092Z,19.39
2019-06-01T01:31:02.988Z,19.51
2019-06-01T01:31:55.392Z,19.33
2019-06-01T01:33:00.589Z,19.28
2019-06-01T01:34:06.142Z,19.41
2019-06-01T01:35:10.955Z,19.18
2019-06-01T01:36:16.769Z,18.96
2019-06-01T01:37:21.788Z,18.82
2019-06-01T01:38:27.644Z,18.72
2019-06-01T01:39:32.910Z,18.76
2019-06-01T01:40:38.301Z,18.66
2019-06-01T01:41:43.312Z,18.80
2019-06-01T01:42:50.491Z,18.86
2019-06-01T01:43:56.566Z,18.89
2019-06-01T01:45:02.160Z,18.92
2019-06-01T01:46:06.745Z,19.09
2019-06-01T01:47:14.434Z,19.32
2019-06-01T01:48:19.158Z,19.38
2019-06-01T01:49:24.743Z,19.09
2019-06-01T01:50:29.718Z,19.08
2019-06-01T01:51:35.311Z,18.92
2019-06-01T01:52:40.834Z,18.94
2019-06-01T01:53:46.125Z,19.01
2019-06-01T01:54:51.138Z,19.18
2019-06-01T01:55:57.232Z,19.19
2019-06-01T01:57:02.718Z,19.23
2019-06-01T01:58:08.356Z,19.03
2019-06-01T01:59:12.838Z,19.11
2019-06-01T02:00:32.316Z,19.13
2019-06-01T02:01:37.310Z,18.96
2019-06-01T02:02:42.970Z,18.67
2019-06-01T02:03:47.942Z,18.73
2019-06-01T02:04:54.226Z,18.89
2019-06-01T02:05:59.257Z,18.73
2019-06-01T02:07:04.789Z,18.87
2019-06-01T02:08:09.736Z,18.75
2019-06-01T02:09:14.822Z,18.80
2019-06-01T02:10:19.515Z,19.01
2019-06-01T02:11:24.799Z,18.98
2019-06-01T02:12:30.070Z,18.90
2019-06-01T02:13:35.998Z,18.86
2019-06-01T02:14:41.001Z,18.91
2019-06-01T02:15:46.282Z,18.94
2019-06-01T02:16:51.900Z,18.85
2019-06-01T02:17:58.155Z,19.02
2019-06-01T02:19:03.429Z,18.84
2019-06-01T02:20:09.120Z,18.72
2019-06-01T02:21:13.807Z,18.80
2019-06-01T02:22:19.364Z,18.89
2019-06-01T02:23:24.643Z,19.04
2019-06-01T02:24:30.042Z,18.75
2019-06-01T02:25:34.626Z,18.88
2019-06-01T02:26:40.088Z,18.82
2019-06-01T02:27:44.540Z,18.46
2019-06-01T02:28:49.832Z,18.71
2019-06-01T02:29:55.300Z,18.70
2019-06-01T02:31:02.104Z,18.66
2019-06-01T02:32:07.587Z,18.61
2019-06-01T02:33:12.626Z,18.65
2019-06-01T02:34:17.319Z,18.56
2019-06-01T02:35:23.166Z,18.56
2019-06-01T02:36:28.425Z,18.51
2019-06-01T02:37:33.459Z,18.63
2019-06-01T02:38:38.199Z,18.57
2019-06-01T02:39:44.499Z,18.78
2019-06-01T02:40:49.882Z,18.60
2019-06-01T02:41:56.685Z,18.66
2019-06-01T02:43:03.716Z,18.83
2019-06-01T02:44:08.923Z,18.55
2019-06-01T02:45:14.124Z,18.70
2019-06-01T02:46:19.714Z,18.51
2019-06-01T02:47:24.687Z,18.37
2019-06-01T02:48:29.723Z,18.42
2019-06-01T02:49:35.057Z,18.36
2019-06-01T02:50:40.686Z,18.46
2019-06-01T02:51:45.667Z,18.51
2019-06-01T02:52:51.214Z,18.47
2019-06-01T02:53:57.593Z,18.63
2019-06-01T02:55:04.584Z,18.48
2019-06-01T02:56:09.646Z,18.41
2019-06-01T02:57:15.488Z,18.54
2019-06-01T02:58:21.044Z,18.49
2019-06-01T02:59:26.574Z,18.42
2019-06-01T03:01:12.102Z,18.42
2019-06-01T03:02:17.776Z,18.32
2019-06-01T03:03:22.462Z,18.24
2019-06-01T03:04:28.112Z,18.33
2019-06-01T03:05:33.748Z,18.23
2019-06-01T03:06:42.338Z,18.41
2019-06-01T03:07:50.241Z,18.49
2019-06-01T03:08:59.759Z,18.61
2019-06-01T03:10:06.955Z,18.67
2019-06-01T03:11:15.475Z,18.43
2019-06-01T03:12:22.637Z,18.43
2019-06-01T03:13:29.828Z,18.43
2019-06-01T03:14:36.923Z,18.38
2019-06-01T03:15:43.959Z,18.22
2019-06-01T03:16:52.391Z,18.31
2019-06-01T03:18:01.557Z,18.38
2019-06-01T03:19:08.068Z,18.30
2019-06-01T03:20:14.802Z,18.50
2019-06-01T03:21:22.383Z,18.37
2019-06-01T03:22:29.087Z,18.25
2019-06-01T03:23:36.101Z,18.25
2019-06-01T03:24:41.681Z,18.12
2019-06-01T03:25:49.578Z,18.24
2019-06-01T03:26:56.239Z,18.54
2019-06-01T03:28:04.237Z,18.47
2019-06-01T03:29:12.728Z,18.47
2019-06-01T03:30:23.299Z,18.38
2019-06-01T03:31:29.135Z,18.61
2019-06-01T03:32:37.131Z,18.41
2019-06-01T03:33:41.453Z,18.41
2019-06-01T03:34:46.410Z,18.46
2019-06-01T03:35:51.964Z,18.43
2019-06-01T03:36:56.977Z,18.51
2019-06-01T03:38:03.018Z,18.41
2019-06-01T03:39:08.518Z,18.41
2019-06-01T03:40:23.406Z,18.45
2019-06-01T03:41:21.193Z,18.25
2019-06-01T03:42:26.761Z,18.36
2019-06-01T03:43:32.064Z,18.36
2019-06-01T03:44:37.923Z,18.19
2019-06-01T03:45:42.905Z,18.41
2019-06-01T03:46:48.644Z,18.39
2019-06-01T03:47:54.201Z,18.39
2019-06-01T03:48:59.480Z,18.49
2019-06-01T03:50:04.837Z,18.49
2019-06-01T03:51:10.406Z,18.54
2019-06-01T03:52:15.403Z,18.51
2019-06-01T03:53:20.980Z,18.54
2019-06-01T03:54:26.102Z,18.35
2019-06-01T03:55:31.985Z,18.68
2019-06-01T03:56:36.928Z,18.68
2019-06-01T03:57:42.258Z,18.69
2019-06-01T03:58:47.223Z,18.63
2019-06-01T03:59:53.095Z,18.59
2019-06-01T04:00:58.263Z,18.54
2019-06-01T04:02:03.566Z,18.74
2019-06-01T04:03:09.202Z,18.74
2019-06-01T04:04:15.044Z,18.58
2019-06-01T04:05:20.019Z,18.58
2019-06-01T04:06:25.843Z,18.81
2019-06-01T04:07:31.390Z,18.69
2019-06-01T04:08:36.981Z,18.86
2019-06-01T04:09:41.741Z,18.93
2019-06-01T04:10:47.486Z,18.82
2019-06-01T04:11:52.486Z,18.83
2019-06-01T04:12:58.361Z,18.64
2019-06-01T04:14:03.605Z,18.45
2019-06-01T04:15:13.104Z,18.86
2019-06-01T04:16:15.760Z,18.83
2019-06-01T04:17:21.035Z,18.83
2019-06-01T04:18:25.511Z,18.98
2019-06-01T04:19:31.001Z,19.18
2019-06-01T04:20:36.098Z,19.11
2019-06-01T04:21:41.451Z,19.11
2019-06-01T04:22:46.182Z,18.68
2019-06-01T04:23:51.575Z,18.68
2019-06-01T04:24:57.189Z,18.75
2019-06-01T04:26:04.149Z,18.90
2019-06-01T04:27:10.244Z,18.86
2019-06-01T04:28:16.363Z,19.21
2019-06-01T04:29:21.329Z,18.81
2019-06-01T04:30:28.974Z,18.99
2019-06-01T04:31:33.678Z,18.63
2019-06-01T04:32:49.350Z,18.63
2019-06-01T04:33:46.204Z,18.70
2019-06-01T04:34:51.771Z,18.94
2019-06-01T04:35:56.294Z,19.14
2019-06-01T04:37:03.496Z,19.02
2019-06-01T04:38:09.237Z,18.82
2019-06-01T04:39:15.482Z,18.91
2019-06-01T04:40:20.146Z,18.91
2019-06-01T04:41:25.987Z,19.02
2019-06-01T04:42:30.979Z,19.15
2019-06-01T04:43:36.794Z,18.93
2019-06-01T04:44:41.855Z,19.23
2019-06-01T04:45:47.497Z,19.05
2019-06-01T04:46:52.188Z,19.05
2019-06-01T04:47:57.524Z,19.25
2019-06-01T04:49:02.761Z,19.35
2019-06-01T04:50:08.724Z,19.43
2019-06-01T04:51:14.969Z,19.28
2019-06-01T04:52:20.967Z,19.28
2019-06-01T04:53:26.075Z,19.25
2019-06-01T04:54:31.523Z,19.23
2019-06-01T04:55:36.794Z,19.22
2019-06-01T04:56:42.358Z,19.33
2019-06-01T04:57:47.036Z,19.06
2019-06-01T04:58:52.964Z,19.25
2019-06-01T04:59:57.716Z,19.25
2019-06-01T05:01:03.295Z,19.34
2019-06-01T05:02:09.305Z,19.34
2019-06-01T05:03:15.504Z,19.44
2019-06-01T05:04:20.419Z,19.33
2019-06-01T05:05:26.257Z,19.24
2019-06-01T05:06:31.063Z,19.54
2019-06-01T05:07:37.184Z,19.54
2019-06-01T05:08:42.478Z,19.56
2019-06-01T05:09:48.412Z,19.50
2019-06-01T05:10:53.436Z,19.41
2019-06-01T05:11:59.304Z,19.83
2019-06-01T05:13:03.774Z,19.83
2019-06-01T05:14:09.724Z,19.80
2019-06-01T05:15:16.209Z,19.81
2019-06-01T05:16:22.338Z,19.81
2019-06-01T05:17:27.433Z,19.88
2019-06-01T05:18:32.959Z,19.93
2019-06-01T05:19:38.351Z,19.97
2019-06-01T05:20:44.778Z,19.98
2019-06-01T05:21:49.724Z,19.99
2019-06-01T05:22:55.313Z,20.06
2019-06-01T05:24:00.457Z,20.06
2019-06-01T05:25:06.870Z,20.00
2019-06-01T05:26:12.853Z,20.00
2019-06-01T05:27:18.492Z,19.96
2019-06-01T05:28:23.750Z,19.80
2019-06-01T05:29:29.283Z,19.82
2019-06-01T05:30:34.617Z,19.67
2019-06-01T05:31:40.799Z,20.12
2019-06-01T05:32:46.101Z,20.12
2019-06-01T05:33:51.985Z,20.47
2019-06-01T05:34:56.755Z,20.48
2019-06-01T05:36:02.601Z,20.01
2019-06-01T05:37:08.509Z,19.82
2019-06-01T05:38:14.327Z,19.90
2019-06-01T05:39:19.604Z,20.61
2019-06-01T05:40:25.489Z,20.61
2019-06-01T05:41:30.461Z,20.29
2019-06-01T05:42:36.307Z,20.31
2019-06-01T05:43:41.973Z,20.64
2019-06-01T05:44:47.542Z,20.46
2019-06-01T05:45:52.810Z,20.48
2019-06-01T05:46:58.382Z,20.39
2019-06-01T05:48:03.629Z,20.48
2019-06-01T05:49:11.988Z,20.69
2019-06-01T05:50:16.442Z,20.62
2019-06-01T05:51:23.054Z,20.84
2019-06-01T05:52:27.798Z,21.12
2019-06-01T05:53:33.694Z,21.49
2019-06-01T05:54:38.743Z,21.26
2019-06-01T05:55:44.310Z,21.27
2019-06-01T05:56:49.874Z,21.64
2019-06-01T05:57:55.158Z,21.85
2019-06-01T05:59:00.138Z,21.57
2019-06-01T06:00:06.198Z,21.81
2019-06-01T06:01:12.348Z,22.04
2019-06-01T06:02:19.486Z,22.28
2019-06-01T06:03:39.528Z,22.43
2019-06-01T06:04:32.477Z,22.68
2019-06-01T06:05:37.518Z,22.83
2019-06-01T06:06:44.320Z,22.90
2019-06-01T06:07:49.271Z,23.01
2019-06-01T06:08:55.185Z,23.24
2019-06-01T06:10:00.148Z,23.31
2019-06-01T06:11:06.320Z,23.17
2019-06-01T06:12:11.334Z,23.56
2019-06-01T06:13:17.459Z,23.70
2019-06-01T06:14:22.820Z,23.56
2019-06-01T06:15:28.088Z,23.77
2019-06-01T06:16:33.351Z,23.93
2019-06-01T06:17:38.929Z,23.89
2019-06-01T06:18:43.380Z,24.03
2019-06-01T06:19:49.315Z,24.25
2019-06-01T06:20:54.274Z,24.21
2019-06-01T06:21:59.822Z,24.38
2019-06-01T06:23:04.534Z,24.49
2019-06-01T06:24:09.836Z,24.70
2019-06-01T06:25:14.823Z,24.82
2019-06-01T06:26:20.902Z,24.97
2019-06-01T06:27:27.207Z,25.07
2019-06-01T06:28:32.574Z,25.58
2019-06-01T06:29:37.831Z,26.73
2019-06-01T06:30:43.396Z,27.50
2019-06-01T06:31:48.463Z,28.97
2019-06-01T06:32:54.272Z,30.08
2019-06-01T06:33:58.911Z,30.17
2019-06-01T06:35:03.933Z,31.47
2019-06-01T06:36:08.904Z,32.13
2019-06-01T06:37:15.551Z,33.51
2019-06-01T06:38:21.931Z,33.47
2019-06-01T06:39:27.776Z,33.65
2019-06-01T06:40:33.829Z,35.11
2019-06-01T06:41:39.377Z,35.45
2019-06-01T06:42:44.621Z,34.80
2019-06-01T06:43:50.522Z,35.24
2019-06-01T06:44:55.761Z,36.38
2019-06-01T06:46:01.339Z,35.94
2019-06-01T06:47:06.278Z,36.50
2019-06-01T06:48:11.848Z,35.61
2019-06-01T06:49:17.130Z,36.45
2019-06-01T06:50:23.566Z,36.84
2019-06-01T06:51:28.647Z,37.33
2019-06-01T06:52:34.264Z,37.30
2019-06-01T06:53:38.937Z,37.96
2019-06-01T06:54:44.276Z,38.03
2019-06-01T06:55:49.248Z,37.55
2019-06-01T06:56:54.506Z,38.11
2019-06-01T06:57:59.214Z,37.80
2019-06-01T06:59:04.290Z,38.53
2019-06-01T07:00:09.346Z,38.84
2019-06-01T07:01:14.607Z,38.03
2019-06-01T07:02:19.482Z,38.85
2019-06-01T07:03:25.241Z,38.03
2019-06-01T07:04:30.494Z,37.35
2019-06-01T07:05:36.080Z,37.48
2019-06-01T07:06:40.762Z,35.57
2019-06-01T07:07:46.021Z,36.20
2019-06-01T07:08:50.964Z,36.39
2019-06-01T07:09:56.136Z,35.95
2019-06-01T07:11:00.845Z,34.94
2019-06-01T07:12:06.385Z,34.57
2019-06-01T07:13:11.656Z,35.37
2019-06-01T07:14:17.730Z,35.63
2019-06-01T07:15:23.491Z,35.15
2019-06-01T07:16:28.588Z,34.49
2019-06-01T07:17:33.261Z,32.27
2019-06-01T07:18:39.100Z,32.17
2019-06-01T07:19:44.673Z,34.24
2019-06-01T07:20:50.241Z,34.58
2019-06-01T07:21:55.190Z,35.30
2019-06-01T07:23:01.024Z,34.11
2019-06-01T07:24:05.746Z,34.90
2019-06-01T07:25:11.551Z,37.70
2019-06-01T07:26:17.095Z,37.30
2019-06-01T07:27:22.631Z,39.14
2019-06-01T07:28:28.267Z,38.07
2019-06-01T07:29:33.942Z,39.33
2019-06-01T07:30:49.701Z,40.26
2019-06-01T07:31:46.720Z,39.91
2019-06-01T07:32:52.034Z,40.39
2019-06-01T07:33:58.108Z,40.70
2019-06-01T07:35:03.093Z,41.07
2019-06-01T07:36:08.380Z,40.70
2019-06-01T07:37:12.881Z,42.44
2019-06-01T07:38:18.492Z,41.22
2019-06-01T07:39:24.868Z,41.55
2019-06-01T07:40:30.604Z,38.99
2019-06-01T07:41:35.558Z,40.10
2019-06-01T07:42:41.116Z,40.17
2019-06-01T07:43:46.130Z,40.91
2019-06-01T07:44:51.438Z,41.41
2019-06-01T07:45:56.411Z,41.81
2019-06-01T07:47:02.048Z,41.49
2019-06-01T07:48:07.265Z,41.27
2019-06-01T07:49:13.127Z,42.06
2019-06-01T07:50:17.806Z,41.71
2019-06-01T07:51:23.653Z,42.93
2019-06-01T07:52:28.631Z,44.09
2019-06-01T07:53:33.896Z,43.25
2019-06-01T07:54:38.867Z,43.78
2019-06-01T07:55:44.385Z,43.95
2019-06-01T07:56:49.091Z,44.27
2019-06-01T07:57:54.703Z,44.61
2019-06-01T07:58:59.467Z,44.54
2019-06-01T08:00:04.661Z,42.86
2019-06-01T08:01:09.097Z,42.77
2019-06-01T08:02:14.669Z,43.13
2019-06-01T08:03:19.924Z,42.52
2019-06-01T08:04:28.121Z,44.05
2019-06-01T08:05:33.222Z,43.04
2019-06-01T08:06:45.132Z,44.45
2019-06-01T08:07:45.746Z,44.43
2019-06-01T08:08:50.857Z,43.89
2019-06-01T08:09:56.121Z,45.36
2019-06-01T08:11:02.271Z,45.14
2019-06-01T08:12:07.222Z,45.65
2019-06-01T08:13:13.077Z,45.80
2019-06-01T08:14:18.051Z,45.82
2019-06-01T08:15:23.567Z,45.56
2019-06-01T08:16:28.276Z,45.59
2019-06-01T08:17:34.154Z,45.74
2019-06-01T08:18:39.406Z,45.88
2019-06-01T08:19:44.992Z,46.64
2019-06-01T08:20:50.221Z,46.97
2019-06-01T08:21:55.794Z,46.75
2019-06-01T08:23:01.246Z,46.08
2019-06-01T08:24:07.076Z,45.35
2019-06-01T08:25:12.299Z,45.33
2019-06-01T08:26:20.019Z,46.19
2019-06-01T08:27:24.947Z,46.56
2019-06-01T08:28:30.882Z,45.82
2019-06-01T08:29:35.876Z,46.54
2019-06-01T08:30:41.139Z,47.40
2019-06-01T08:31:46.106Z,47.87
2019-06-01T08:32:51.654Z,46.31
2019-06-01T08:33:56.086Z,43.69
2019-06-01T08:35:08.559Z,46.76
2019-06-01T08:36:08.072Z,46.48
2019-06-01T08:37:13.903Z,46.39
2019-06-01T08:38:18.886Z,46.05
2019-06-01T08:39:25.199Z,46.69
2019-06-01T08:40:31.429Z,47.29
2019-06-01T08:41:36.749Z,47.24
2019-06-01T08:42:41.733Z,47.29
2019-06-01T08:43:47.299Z,47.67
2019-06-01T08:44:52.248Z,47.85
2019-06-01T08:45:57.541Z,47.77
2019-06-01T08:47:02.348Z,48.48
2019-06-01T08:48:07.921Z,46.68
2019-06-01T08:49:12.627Z,47.42
2019-06-01T08:50:18.807Z,47.31
2019-06-01T08:51:23.989Z,48.19
2019-06-01T08:52:30.393Z,47.40
2019-06-01T08:53:35.164Z,46.16
2019-06-01T08:54:40.508Z,47.78
2019-06-01T08:55:45.737Z,46.80
2019-06-01T08:56:51.341Z,47.61
2019-06-01T08:57:56.044Z,47.61
2019-06-01T08:59:01.933Z,47.24
2019-06-01T09:00:07.968Z,47.59
2019-06-01T09:01:13.315Z,47.49
2019-06-01T09:02:18.670Z,48.13
2019-06-01T09:03:25.736Z,48.14
2019-06-01T09:04:32.732Z,48.25
2019-06-01T09:05:37.931Z,45.49
2019-06-01T09:06:42.922Z,47.47
2019-06-01T09:07:47.992Z,46.94
2019-06-01T09:08:52.957Z,48.70
2019-06-01T09:09:58.036Z,49.07
2019-06-01T09:11:03.273Z,49.66
2019-06-01T09:12:08.582Z,49.29
2019-06-01T09:13:13.539Z,49.36
2019-06-01T09:14:18.563Z,49.53
2019-06-01T09:15:23.592Z,49.58
2019-06-01T09:16:29.694Z,50.19
2019-06-01T09:17:35.526Z,49.31
2019-06-01T09:18:40.941Z,49.33
2019-06-01T09:19:45.925Z,49.00
2019-06-01T09:20:50.962Z,49.29
2019-06-01T09:21:55.954Z,49.13
2019-06-01T09:23:02.153Z,49.79
2019-06-01T09:24:06.833Z,49.22
2019-06-01T09:25:12.115Z,49.49
2019-06-01T09:26:17.398Z,49.32
2019-06-01T09:27:22.974Z,50.36
2019-06-01T09:28:27.934Z,50.67
2019-06-01T09:29:34.079Z,49.30
2019-06-01T09:30:39.415Z,49.98
2019-06-01T09:31:45.242Z,49.34
2019-06-01T09:32:50.216Z,47.95
2019-06-01T09:33:55.597Z,48.05
2019-06-01T09:35:00.276Z,47.59
2019-06-01T09:36:05.538Z,47.41
2019-06-01T09:37:10.500Z,48.12
2019-06-01T09:38:16.091Z,48.32
2019-06-01T09:39:20.770Z,47.96
2019-06-01T09:40:28.253Z,49.39
2019-06-01T09:41:33.133Z,48.17
2019-06-01T09:42:38.186Z,48.70
2019-06-01T09:43:42.622Z,48.22
2019-06-01T09:44:48.348Z,48.07
2019-06-01T09:45:53.753Z,48.20
2019-06-01T09:46:59.241Z,48.22
2019-06-01T09:48:03.945Z,48.43
2019-06-01T09:49:09.538Z,48.88
2019-06-01T09:50:14.724Z,49.18
2019-06-01T09:51:20.301Z,48.52
2019-06-01T09:52:25.577Z,48.55
2019-06-01T09:53:32.426Z,47.63
2019-06-01T09:54:38.138Z,45.99
2019-06-01T09:55:43.636Z,46.02
2019-06-01T09:56:48.949Z,45.89
2019-06-01T09:57:54.234Z,46.53
2019-06-01T09:58:59.482Z,45.16
2019-06-01T10:00:05.200Z,45.05
2019-06-01T10:01:09.913Z,46.47
2019-06-01T10:02:15.156Z,48.07
2019-06-01T10:03:20.095Z,47.11
2019-06-01T10:04:25.365Z,45.68
2019-06-01T10:05:30.280Z,46.60
2019-06-01T10:06:36.617Z,46.40
2019-06-01T10:07:41.641Z,47.18
2019-06-01T10:08:47.252Z,48.46
2019-06-01T10:09:52.542Z,48.45
2019-06-01T10:10:58.089Z,47.13
2019-06-01T10:12:03.096Z,47.22
2019-06-01T10:13:08.650Z,48.19
2019-06-01T10:14:13.336Z,47.85
2019-06-01T10:15:18.601Z,48.91
2019-06-01T10:16:23.833Z,48.70
2019-06-01T10:17:30.449Z,49.41
2019-06-01T10:18:36.935Z,49.93
2019-06-01T10:19:43.133Z,49.34
2019-06-01T10:20:48.357Z,48.95
2019-06-01T10:21:54.473Z,48.77
2019-06-01T10:22:59.157Z,48.23
2019-06-01T10:24:04.479Z,48.74
2019-06-01T10:25:09.968Z,48.54
2019-06-01T10:26:15.234Z,49.00
2019-06-01T10:27:20.205Z,49.53
2019-06-01T10:28:25.883Z,49.67
2019-06-01T10:29:30.748Z,48.87
2019-06-01T10:30:37.830Z,50.75
2019-06-01T10:31:43.256Z,49.60
2019-06-01T10:32:49.066Z,49.49
2019-06-01T10:33:54.107Z,49.73
2019-06-01T10:34:59.396Z,49.88
2019-06-01T10:36:19.044Z,48.76
2019-06-01T10:37:11.648Z,50.18
2019-06-01T10:38:16.935Z,49.68
2019-06-01T10:39:22.273Z,48.82
2019-06-01T10:40:27.302Z,49.00
2019-06-01T10:41:33.288Z,48.89
2019-06-01T10:42:39.728Z,48.96
2019-06-01T10:43:45.462Z,50.61
2019-06-01T10:44:50.423Z,49.02
2019-06-01T10:45:55.703Z,48.72
2019-06-01T10:47:00.417Z,49.41
2019-06-01T10:48:05.694Z,50.22
2019-06-01T10:49:10.681Z,49.75
2019-06-01T10:50:17.613Z,50.22
2019-06-01T10:51:22.497Z,49.91
2019-06-01T10:52:28.359Z,48.88
2019-06-01T10:53:34.851Z,51.37
2019-06-01T10:54:42.463Z,51.61
2019-06-01T10:55:47.447Z,49.42
2019-06-01T10:56:53.191Z,48.06
2019-06-01T10:57:58.666Z,47.04
2019-06-01T10:59:03.709Z,48.28
2019-06-01T11:00:08.795Z,49.57
2019-06-01T11:01:14.390Z,48.83
2019-06-01T11:02:18.824Z,48.83
2019-06-01T11:03:24.106Z,49.25
2019-06-01T11:04:28.850Z,50.20
2019-06-01T11:05:34.978Z,50.59
2019-06-01T11:06:44.912Z,50.90
2019-06-01T11:07:46.580Z,51.57
2019-06-01T11:08:51.903Z,51.74
2019-06-01T11:09:57.781Z,50.88
2019-06-01T11:11:02.509Z,50.94
2019-06-01T11:12:07.766Z,50.14
2019-06-01T11:13:13.330Z,51.40
2019-06-01T11:14:18.602Z,49.24
2019-06-01T11:15:24.165Z,50.01
2019-06-01T11:16:29.785Z,50.75
2019-06-01T11:17:34.935Z,49.35
2019-06-01T11:18:41.760Z,50.27
2019-06-01T11:19:46.638Z,49.92
2019-06-01T11:20:52.432Z,50.70
2019-06-01T11:21:58.005Z,51.37
2019-06-01T11:23:03.701Z,50.70
2019-06-01T11:24:08.337Z,50.72
2019-06-01T11:25:14.117Z,49.50
2019-06-01T11:26:19.355Z,49.08
2019-06-01T11:27:24.933Z,50.12
2019-06-01T11:28:29.911Z,50.03
2019-06-01T11:29:41.192Z,49.91
2019-06-01T11:30:42.141Z,49.52
2019-06-01T11:31:47.708Z,49.22
2019-06-01T11:32:52.877Z,49.37
2019-06-01T11:33:57.914Z,49.97
2019-06-01T11:35:02.642Z,49.58
2019-06-01T11:36:08.196Z,49.07
2019-06-01T11:37:15.439Z,48.97
2019-06-01T11:38:20.167Z,50.15
2019-06-01T11:39:25.171Z,51.13
2019-06-01T11:40:31.118Z,49.90
2019-06-01T11:41:36.391Z,49.92
2019-06-01T11:42:42.803Z,49.58
2019-06-01T11:43:48.275Z,49.92
2019-06-01T11:44:53.896Z,50.57
2019-06-01T11:45:58.890Z,49.64
2019-06-01T11:47:04.418Z,49.60
2019-06-01T11:48:09.392Z,49.79
2019-06-01T11:49:14.991Z,50.58
2019-06-01T11:50:19.693Z,49.98
2019-06-01T11:51:25.374Z,50.42
2019-06-01T11:52:29.802Z,50.42
2019-06-01T11:53:35.372Z,51.03
2019-06-01T11:54:41.193Z,50.11
2019-06-01T11:55:46.606Z,49.47
2019-06-01T11:56:51.920Z,50.33
2019-06-01T11:57:57.443Z,49.82
2019-06-01T11:59:02.725Z,49.22
2019-06-01T12:00:10.066Z,48.65
2019-06-01T12:01:15.095Z,49.53
2019-06-01T12:02:20.673Z,49.60
2019-06-01T12:03:26.253Z,51.02
2019-06-01T12:04:31.299Z,50.30
2019-06-01T12:05:36.298Z,49.85
2019-06-01T12:06:42.095Z,49.19
2019-06-01T12:07:47.351Z,48.22
2019-06-01T12:08:53.461Z,44.97
2019-06-01T12:09:58.540Z,42.75
2019-06-01T12:11:03.872Z,41.91
2019-06-01T12:12:08.854Z,41.64
2019-06-01T12:13:14.668Z,41.07
2019-06-01T12:14:19.645Z,39.82
2019-06-01T12:15:26.882Z,39.75
2019-06-01T12:16:32.224Z,39.91
2019-06-01T12:17:38.597Z,39.55
2019-06-01T12:18:44.725Z,39.36
2019-06-01T12:19:50.385Z,38.70
2019-06-01T12:20:55.067Z,38.51
2019-06-01T12:22:00.954Z,37.90
2019-06-01T12:23:05.876Z,37.76
2019-06-01T12:24:11.707Z,38.31
2019-06-01T12:25:16.856Z,37.85
2019-06-01T12:26:22.131Z,37.77
2019-06-01T12:27:26.805Z,37.48
2019-06-01T12:28:32.358Z,36.42
2019-06-01T12:29:37.741Z,35.86
2019-06-01T12:30:43.824Z,35.85
2019-06-01T12:31:49.333Z,35.40
2019-06-01T12:32:55.000Z,34.68
2019-06-01T12:34:00.260Z,35.58
2019-06-01T12:35:06.289Z,35.46
2019-06-01T12:36:11.005Z,35.57
2019-06-01T12:37:34.151Z,35.27
2019-06-01T12:38:23.356Z,35.15
2019-06-01T12:39:28.955Z,35.09
2019-06-01T12:40:33.641Z,34.97
2019-06-01T12:41:39.754Z,35.42
2019-06-01T12:42:45.918Z,35.28
2019-06-01T12:44:08.677Z,34.88
2019-06-01T12:45:22.432Z,34.84
2019-06-01T12:46:26.332Z,35.24
2019-06-01T12:47:31.744Z,35.60
2019-06-01T12:48:37.002Z,34.77
2019-06-01T12:49:42.382Z,34.01
2019-06-01T12:50:50.788Z,34.04
2019-06-01T12:51:54.252Z,33.53
2019-06-01T12:52:59.818Z,34.42
2019-06-01T12:54:04.812Z,34.24
2019-06-01T12:55:10.275Z,34.41
2019-06-01T12:56:15.539Z,34.56
2019-06-01T12:57:21.199Z,34.42
2019-06-01T12:58:26.256Z,34.58
2019-06-01T12:59:32.070Z,34.22
2019-06-01T13:00:37.019Z,34.34
2019-06-01T13:01:43.104Z,33.37
2019-06-01T13:02:59.241Z,33.40
2019-06-01T13:03:55.249Z,34.11
2019-06-01T13:05:00.788Z,34.53
2019-06-01T13:06:06.329Z,34.66
2019-06-01T13:07:11.572Z,34.58
2019-06-01T13:08:17.416Z,34.68
2019-06-01T13:09:22.139Z,34.61
2019-06-01T13:10:27.700Z,34.32
2019-06-01T13:11:32.377Z,34.30
2019-06-01T13:12:37.932Z,34.46
2019-06-01T13:13:43.201Z,34.39
2019-06-01T13:14:49.356Z,34.50
2019-06-01T13:15:54.128Z,34.26
2019-06-01T13:17:07.312Z,33.88
2019-06-01T13:18:06.473Z,33.87
2019-06-01T13:19:11.780Z,34.20
2019-06-01T13:20:16.495Z,34.45
2019-06-01T13:21:22.298Z,34.65
2019-06-01T13:22:27.051Z,34.33
2019-06-01T13:23:32.591Z,34.50
2019-06-01T13:24:37.526Z,34.54
2019-06-01T13:25:43.582Z,34.34
2019-06-01T13:26:50.037Z,34.27
2019-06-01T13:27:56.155Z,34.24
2019-06-01T13:29:01.105Z,33.94
2019-06-01T13:30:07.254Z,33.21
2019-06-01T13:31:12.476Z,33.76
2019-06-01T13:32:18.149Z,33.88
2019-06-01T13:33:22.625Z,34.13
2019-06-01T13:34:28.454Z,34.08
2019-06-01T13:35:35.362Z,33.13
2019-06-01T13:36:40.644Z,33.48
2019-06-01T13:37:46.615Z,33.44
2019-06-01T13:38:52.944Z,33.35
2019-06-01T13:39:58.499Z,33.38
2019-06-01T13:41:03.880Z,33.63
2019-06-01T13:42:08.858Z,33.98
2019-06-01T13:43:14.432Z,33.65
2019-06-01T13:44:19.986Z,33.44
2019-06-01T13:45:25.234Z,33.18
2019-06-01T13:46:29.924Z,33.43
2019-06-01T13:47:35.492Z,33.36
2019-06-01T13:48:40.437Z,33.44
2019-06-01T13:49:46.850Z,33.62
2019-06-01T13:50:52.230Z,33.43
2019-06-01T13:51:57.760Z,32.85
2019-06-01T13:53:03.545Z,32.93
2019-06-01T13:54:09.092Z,33.19
2019-06-01T13:55:14.511Z,33.34
2019-06-01T13:56:20.080Z,33.27
2019-06-01T13:57:25.349Z,33.22
2019-06-01T13:58:30.884Z,33.25
2019-06-01T13:59:35.585Z,33.49
2019-06-01T14:00:41.120Z,33.46
2019-06-01T14:01:46.952Z,33.18
2019-06-01T14:02:55.517Z,33.28
2019-06-01T14:03:59.504Z,33.36
2019-06-01T14:05:04.761Z,33.32